createdAt,value
2022-08-30T00:01:46.107Z,18.1
2022-08-30T00:11:46.125Z,18.1
2022-08-30T00:21:46.154Z,18
2022-08-30T00:31:46.162Z,18
2022-08-30T00:41:46.189Z,17.9
2022-08-30T00:51:46.207Z,17.8
2022-08-30T01:11:46.262Z,17.7
2022-08-30T01:21:46.290Z,17.5
2022-08-30T01:31:46.363Z,17.4
2022-08-30T01:41:46.334Z,17.3
2022-08-30T01:51:46.337Z,17.1
2022-08-30T02:01:46.368Z,16.9
2022-08-30T02:11:46.410Z,16.9
2022-08-30T02:21:46.406Z,16.7
2022-08-30T02:31:46.443Z,16.6
2022-08-30T02:41:46.458Z,16.5
2022-08-30T02:51:46.480Z,16.4
2022-08-30T03:01:46.503Z,16.3
2022-08-30T03:11:46.544Z,16.2
2022-08-30T03:21:46.556Z,16.2
2022-08-30T03:31:46.596Z,16
2022-08-30T03:41:46.601Z,16.1
2022-08-30T03:51:46.632Z,16.1
2022-08-30T04:01:46.662Z,16
2022-08-30T04:11:46.683Z,15.9
2022-08-30T04:21:46.708Z,15.8
2022-08-30T04:31:46.734Z,15.7
2022-08-30T04:41:46.751Z,15.6
2022-08-30T04:51:46.759Z,15.4
2022-08-30T05:01:46.796Z,15.3
2022-08-30T05:11:46.824Z,15.2
2022-08-30T05:21:46.835Z,15.3
2022-08-30T05:31:46.855Z,15.2
2022-08-30T05:41:46.877Z,15.2
2022-08-30T05:51:46.897Z,15.3
2022-08-30T06:01:46.954Z,15.3
2022-08-30T06:11:46.951Z,15.4
2022-08-30T06:21:46.971Z,15.5
2022-08-30T06:31:46.985Z,15.7
2022-08-30T06:41:47.009Z,15.9
2022-08-30T06:51:47.057Z,16
2022-08-30T07:01:47.072Z,16.1
2022-08-30T07:11:47.086Z,16.4
2022-08-30T07:21:47.126Z,16.6
2022-08-30T07:31:47.149Z,16.8
2022-08-30T07:41:47.165Z,17
2022-08-30T07:51:47.173Z,17.1
2022-08-30T08:01:47.211Z,17.4
2022-08-30T08:11:47.277Z,17.5
2022-08-30T08:21:47.260Z,17.9
2022-08-30T08:31:47.275Z,18.3
2022-08-30T08:41:47.314Z,18.6
2022-08-30T08:51:47.342Z,18.6
2022-08-30T09:01:47.353Z,19.3
2022-08-30T09:11:47.428Z,19.5
2022-08-30T09:21:47.426Z,20
2022-08-30T09:31:47.485Z,20.6
2022-08-30T09:41:47.455Z,21.5
2022-08-30T09:51:47.529Z,22.9
2022-08-30T10:01:47.569Z,22.9
2022-08-30T10:11:47.575Z,23.7
2022-08-30T10:21:47.585Z,24.3
2022-08-30T10:31:47.593Z,25.2
2022-08-30T10:41:47.653Z,24.7
2022-08-30T10:51:47.666Z,25.7
2022-08-30T11:01:47.676Z,26.2
2022-08-30T11:11:47.711Z,25.3
2022-08-30T11:21:47.766Z,25.6
2022-08-30T11:31:47.761Z,24.9
2022-08-30T11:41:47.767Z,24.7
2022-08-30T11:51:47.879Z,24.4
2022-08-30T12:01:47.832Z,24.8
2022-08-30T12:11:47.855Z,25.6
2022-08-30T12:21:47.900Z,25
2022-08-30T12:31:47.936Z,25.3
2022-08-30T12:41:47.969Z,27
2022-08-30T12:51:47.955Z,28
2022-08-30T13:01:47.989Z,26.8
2022-08-30T13:11:47.987Z,28.5
2022-08-30T13:21:48.022Z,29.2
2022-08-30T13:31:48.047Z,29.7
2022-08-30T13:41:48.077Z,28
2022-08-30T13:51:48.094Z,27.8
2022-08-30T14:01:48.121Z,28.1
2022-08-30T14:11:48.142Z,29
2022-08-30T14:21:48.166Z,27.8
2022-08-30T14:31:48.187Z,27.1
2022-08-30T14:41:48.228Z,26.6
2022-08-30T14:51:48.263Z,26.4
2022-08-30T15:01:48.294Z,26.5
2022-08-30T15:11:48.283Z,27.4
2022-08-30T15:21:48.326Z,27.6
2022-08-30T15:31:48.362Z,27.7
2022-08-30T15:41:48.375Z,27.2
2022-08-30T15:51:48.402Z,28
2022-08-30T16:11:48.427Z,27.6
2022-08-30T16:21:48.460Z,27.6
2022-08-30T16:31:48.500Z,28.1
2022-08-30T16:41:48.516Z,29.1
2022-08-30T16:51:48.543Z,30.7
2022-08-30T17:01:48.639Z,28.3
2022-08-30T17:11:48.591Z,29
2022-08-30T17:21:48.636Z,29.7
2022-08-30T17:31:48.632Z,28.2
2022-08-30T17:41:48.681Z,29
2022-08-30T17:51:48.668Z,28.8
2022-08-30T18:01:48.732Z,27.4
2022-08-30T18:11:48.751Z,26.2
2022-08-30T18:21:48.796Z,25
2022-08-30T18:31:48.819Z,24.2
2022-08-30T18:41:48.839Z,23.4
2022-08-30T18:51:48.846Z,22.9
2022-08-30T19:01:48.902Z,22.5
2022-08-30T19:11:48.896Z,22.1
2022-08-30T19:21:48.931Z,21.8
2022-08-30T19:31:48.957Z,21.4
2022-08-30T19:41:49.028Z,21.1
2022-08-30T19:51:49.012Z,20.7
2022-08-30T20:01:49.041Z,20.4
2022-08-30T20:11:49.044Z,20.2
2022-08-30T20:21:49.081Z,20
2022-08-30T20:31:49.074Z,19.8
2022-08-30T20:41:49.101Z,19.6
2022-08-30T20:51:49.154Z,19.4
2022-08-30T21:01:49.174Z,19.2
2022-08-30T21:11:49.187Z,19.1
2022-08-30T21:21:49.200Z,19
2022-08-30T21:31:49.216Z,19
2022-08-30T21:41:49.265Z,18.8
2022-08-30T21:51:49.264Z,18.8
2022-08-30T22:01:49.301Z,18.7
2022-08-30T22:11:49.321Z,18.8
2022-08-30T22:21:49.350Z,18.8
2022-08-30T22:31:49.395Z,18.7
2022-08-30T22:41:49.392Z,18.7
2022-08-30T22:51:49.427Z,18.6
2022-08-30T23:01:49.450Z,18.7
2022-08-30T23:11:49.495Z,18.6
2022-08-30T23:21:49.482Z,18.5
2022-08-30T23:31:49.505Z,18.6
2022-08-30T23:41:49.545Z,18.7
2022-08-30T23:51:49.565Z,18.7
